Time;durP1;ratioP1;P1;durP2;ratioP2;P2;SDS_P1;SDS_P2;PMS_P1;PMS_P2;Temp;Humidity;BMP_temperature;BMP_pressure;BME280_temperature;BME280_humidity;BME280_pressure;Samples;Min_cycle;Max_cycle;Signal;HPM_P1;HPM_P2
2023/07/02 00:00:08;;;;;;;1.33;1.33;;;23.30;68.90;;;;;;5060641;28;43376;-71
2023/07/02 00:02:37;;;;;;;1.60;1.60;;;23.30;68.80;;;;;;5071031;28;43408;-72
2023/07/02 00:05:07;;;;;;;1.40;1.40;;;23.30;68.50;;;;;;5067746;28;45226;-72
2023/07/02 00:07:36;;;;;;;1.57;1.57;;;23.20;68.50;;;;;;5043481;28;44301;-72
2023/07/02 00:10:07;;;;;;;1.43;1.43;;;23.20;69.10;;;;;;5056637;28;43757;-71
2023/07/02 00:12:35;;;;;;;1.43;1.43;;;23.30;68.80;;;;;;5075929;28;43483;-71
2023/07/02 00:15:04;;;;;;;1.37;1.37;;;23.40;68.60;;;;;;5051917;28;45354;-71
2023/07/02 00:17:32;;;;;;;1.30;1.30;;;23.50;68.10;;;;;;5068565;28;43800;-71
2023/07/02 00:20:09;;;;;;;1.20;1.20;;;23.60;68.00;;;;;;5066224;28;44012;-71
2023/07/02 00:22:38;;;;;;;1.50;1.50;;;23.60;67.90;;;;;;5050120;28;43463;-72
2023/07/02 00:25:06;;;;;;;1.30;1.30;;;23.50;67.80;;;;;;5067779;28;43781;-72
2023/07/02 00:27:34;;;;;;;1.57;1.57;;;23.50;68.30;;;;;;5071484;28;43346;-72
2023/07/02 00:30:02;;;;;;;1.30;1.30;;;23.40;68.40;;;;;;5068427;28;43393;-72
2023/07/02 00:32:30;;;;;;;1.30;1.30;;;23.40;68.40;;;;;;5046824;28;43451;-72
2023/07/02 00:34:59;;;;;;;1.37;1.27;;;23.40;68.30;;;;;;5072629;28;44321;-72
2023/07/02 00:37:27;;;;;;;1.30;1.30;;;23.30;68.20;;;;;;5051126;28;44843;-71
2023/07/02 00:39:57;;;;;;;1.43;1.43;;;23.30;68.80;;;;;;5068207;28;43456;-71
2023/07/02 00:42:29;;;;;;;1.23;1.23;;;23.30;68.90;;;;;;5068002;28;43593;-71
2023/07/02 00:45:02;;;;;;;1.30;1.30;;;23.30;68.70;;;;;;5053110;28;45680;-71
2023/07/02 00:47:30;;;;;;;1.50;1.50;;;23.20;68.40;;;;;;5062638;28;44712;-71
2023/07/02 00:49:58;;;;;;;1.40;1.40;;;23.20;69.10;;;;;;5070528;28;43451;-71
2023/07/02 00:52:27;;;;;;;1.30;1.30;;;23.20;69.20;;;;;;5076015;28;43427;-71
2023/07/02 00:54:57;;;;;;;1.40;1.40;;;23.20;68.90;;;;;;5049870;28;45728;-71
2023/07/02 00:57:29;;;;;;;1.63;1.63;;;23.20;68.60;;;;;;5042438;28;43869;-71
2023/07/02 01:00:00;;;;;;;1.30;1.30;;;23.10;68.70;;;;;;5068351;28;43804;-72
2023/07/02 01:02:29;;;;;;;1.23;1.23;;;23.20;69.20;;;;;;5063816;28;43480;-72
2023/07/02 01:04:59;;;;;;;1.30;1.30;;;23.20;68.70;;;;;;5039387;28;45995;-72
2023/07/02 01:07:28;;;;;;;1.53;1.53;;;23.40;68.40;;;;;;5065082;28;43464;-72
2023/07/02 01:09:58;;;;;;;1.50;1.50;;;23.50;67.90;;;;;;5054352;28;43413;-72
2023/07/02 01:12:28;;;;;;;1.30;1.30;;;23.60;67.60;;;;;;5062573;28;43447;-72
2023/07/02 01:14:58;;;;;;;1.33;1.33;;;23.60;67.40;;;;;;5056151;28;45997;-72
2023/07/02 01:17:27;;;;;;;1.33;1.33;;;23.60;67.60;;;;;;5059022;28;44352;-72
2023/07/02 01:19:58;;;;;;;1.40;1.40;;;23.50;67.60;;;;;;5045489;28;43482;-72
2023/07/02 01:22:28;;;;;;;1.40;1.40;;;23.40;68.10;;;;;;5066248;28;43426;-71
2023/07/02 01:24:56;;;;;;;1.30;1.30;;;23.40;68.10;;;;;;5068552;28;43842;-71
2023/07/02 01:27:24;;;;;;;1.30;1.30;;;23.40;68.10;;;;;;5065841;28;43407;-71
2023/07/02 01:29:52;;;;;;;1.40;1.40;;;23.30;68.00;;;;;;5042134;28;43472;-71
2023/07/02 01:32:21;;;;;;;1.30;1.30;;;23.30;68.70;;;;;;5067028;28;43485;-71
2023/07/02 01:34:53;;;;;;;1.60;1.60;;;23.20;69.30;;;;;;5066179;28;43846;-71
2023/07/02 01:37:23;;;;;;;1.13;1.13;;;23.20;68.40;;;;;;5068225;28;43392;-71
2023/07/02 01:39:51;;;;;;;1.40;1.40;;;23.20;68.20;;;;;;5069556;28;43408;-71
2023/07/02 01:42:19;;;;;;;1.37;1.37;;;23.20;68.90;;;;;;5070077;28;43412;-71
2023/07/02 01:44:48;;;;;;;1.37;1.37;;;23.20;68.70;;;;;;5049938;28;45833;-72
2023/07/02 01:47:16;;;;;;;1.30;1.30;;;23.30;68.30;;;;;;5069869;28;45005;-71
2023/07/02 01:49:45;;;;;;;1.30;1.30;;;23.40;68.00;;;;;;5048572;28;43464;-72
2023/07/02 01:52:13;;;;;;;1.60;1.40;;;23.50;67.70;;;;;;5054492;28;43411;-72
2023/07/02 01:54:42;;;;;;;1.23;1.23;;;23.50;67.60;;;;;;5050198;28;46076;-72
2023/07/02 01:57:10;;;;;;;1.30;1.30;;;23.50;67.70;;;;;;5044672;28;44756;-72
2023/07/02 01:59:43;;;;;;;1.20;1.20;;;23.40;67.60;;;;;;5051248;28;43446;-72
2023/07/02 02:02:11;;;;;;;1.30;1.30;;;23.40;68.20;;;;;;5057525;28;43486;-72
2023/07/02 02:04:39;;;;;;;1.30;1.30;;;23.30;68.20;;;;;;5068381;28;43839;-72
2023/07/02 02:07:07;;;;;;;1.33;1.33;;;23.30;68.20;;;;;;5053993;28;44026;-72
2023/07/02 02:09:35;;;;;;;1.50;1.50;;;23.30;68.10;;;;;;5053493;28;43459;-72
2023/07/02 02:12:06;;;;;;;1.30;1.30;;;23.20;68.50;;;;;;5060213;28;43396;-72
2023/07/02 02:14:34;;;;;;;1.33;1.33;;;23.20;68.80;;;;;;5067491;28;43766;-72
2023/07/02 02:17:05;;;;;;;1.30;1.30;;;23.20;68.70;;;;;;5051769;28;44384;-72
2023/07/02 02:19:36;;;;;;;1.30;1.30;;;23.20;68.30;;;;;;5046397;28;43513;-72
2023/07/02 02:22:04;;;;;;;1.40;1.40;;;23.10;68.40;;;;;;5037754;28;43327;-72
2023/07/02 02:24:32;;;;;;;1.20;1.20;;;23.10;68.80;;;;;;5044427;28;45343;-72
2023/07/02 02:27:00;;;;;;;1.40;1.40;;;23.20;68.60;;;;;;5049000;28;44475;-72
2023/07/02 02:29:29;;;;;;;1.43;1.40;;;23.30;68.20;;;;;;5047371;28;43986;-72
2023/07/02 02:31:59;;;;;;;1.50;1.50;;;23.40;67.70;;;;;;5056780;28;43547;-72
2023/07/02 02:34:28;;;;;;;1.50;1.50;;;23.50;67.50;;;;;;5054739;28;45741;-72
2023/07/02 02:36:57;;;;;;;1.30;1.30;;;23.50;67.40;;;;;;5046433;28;45001;-72
2023/07/02 02:39:25;;;;;;;1.27;1.27;;;23.50;67.50;;;;;;5044214;28;43455;-72
2023/07/02 02:41:53;;;;;;;1.53;1.53;;;23.40;67.50;;;;;;5044388;28;43448;-72
2023/07/02 02:44:22;;;;;;;1.40;1.40;;;23.30;67.90;;;;;;5059725;28;45454;-72
2023/07/02 02:46:53;;;;;;;1.43;1.37;;;23.30;68.00;;;;;;5043736;28;45006;-72
2023/07/02 02:49:21;;;;;;;1.40;1.30;;;23.30;68.00;;;;;;5048125;28;43495;-72
2023/07/02 02:51:50;;;;;;;1.50;1.50;;;23.20;67.90;;;;;;5058740;28;43990;-72
2023/07/02 02:54:18;;;;;;;1.47;1.47;;;23.20;68.50;;;;;;5042971;28;43604;-72
2023/07/02 02:56:46;;;;;;;1.37;1.37;;;23.20;68.60;;;;;;5047957;28;43482;-72
2023/07/02 02:59:14;;;;;;;1.50;1.50;;;23.20;68.40;;;;;;5043705;28;43408;-72
2023/07/02 03:01:42;;;;;;;1.40;1.40;;;23.10;68.10;;;;;;5043755;28;43632;-72
2023/07/02 03:04:11;;;;;;;1.30;1.30;;;23.10;68.70;;;;;;5046769;28;44042;-72
2023/07/02 03:06:40;;;;;;;1.77;1.67;;;23.10;68.70;;;;;;5044661;28;43530;-72
2023/07/02 03:09:08;;;;;;;1.40;1.40;;;23.20;68.20;;;;;;5043957;28;43553;-72
2023/07/02 03:11:37;;;;;;;1.50;1.50;;;23.30;67.80;;;;;;5044491;28;43606;-72
2023/07/02 03:14:05;;;;;;;1.63;1.63;;;23.40;67.50;;;;;;5044558;28;45698;-72
2023/07/02 03:16:34;;;;;;;1.60;1.60;;;23.50;67.40;;;;;;5053653;28;43363;-72
2023/07/02 03:19:02;;;;;;;1.60;1.60;;;23.40;67.30;;;;;;5050347;28;43459;-72
2023/07/02 03:21:32;;;;;;;1.53;1.53;;;23.40;67.40;;;;;;5065333;28;43471;-72
2023/07/02 03:24:00;;;;;;;1.50;1.43;;;23.30;67.90;;;;;;5066707;28;43603;-72
2023/07/02 03:26:28;;;;;;;1.30;1.30;;;23.30;67.90;;;;;;5048787;28;44452;-72
2023/07/02 03:28:56;;;;;;;1.47;1.47;;;23.20;67.90;;;;;;5068953;28;43424;-72
2023/07/02 03:31:24;;;;;;;1.60;1.60;;;23.20;67.80;;;;;;5067580;28;43497;-72
2023/07/02 03:33:52;;;;;;;1.60;1.60;;;23.20;68.30;;;;;;5069601;28;43854;-72
2023/07/02 03:36:20;;;;;;;1.70;1.70;;;23.10;68.30;;;;;;5054787;28;44957;-72
2023/07/02 03:38:49;;;;;;;1.40;1.40;;;23.10;68.40;;;;;;5065675;28;43462;-72
2023/07/02 03:41:17;;;;;;;1.80;1.80;;;23.10;68.00;;;;;;5055405;28;43439;-72
2023/07/02 03:43:45;;;;;;;1.60;1.60;;;23.10;68.90;;;;;;5060128;28;46150;-72
2023/07/02 03:46:16;;;;;;;1.63;1.63;;;23.10;68.50;;;;;;5070681;28;43455;-72
2023/07/02 03:48:44;;;;;;;1.57;1.57;;;23.10;68.30;;;;;;5066536;28;43509;-71
2023/07/02 03:51:14;;;;;;;1.70;1.70;;;23.20;67.80;;;;;;5056151;28;43401;-71
2023/07/02 03:53:45;;;;;;;1.80;1.70;;;23.30;67.50;;;;;;5070359;28;45638;-72
2023/07/02 03:56:17;;;;;;;1.67;1.67;;;23.40;67.40;;;;;;5060340;28;43390;-72
2023/07/02 03:58:45;;;;;;;1.80;1.80;;;23.40;67.40;;;;;;5070127;28;44475;-72
2023/07/02 04:01:13;;;;;;;1.70;1.70;;;23.40;67.30;;;;;;5069337;28;43411;-72
2023/07/02 04:03:48;;;;;;;1.80;1.80;;;23.30;67.70;;;;;;5069968;28;43608;-72
2023/07/02 04:06:16;;;;;;;1.80;1.80;;;23.30;67.80;;;;;;5052371;28;44677;-72
2023/07/02 04:08:44;;;;;;;1.70;1.70;;;23.20;67.70;;;;;;5065586;28;43501;-72
2023/07/02 04:11:13;;;;;;;1.80;1.80;;;23.20;67.70;;;;;;5069535;28;43456;-72
2023/07/02 04:13:41;;;;;;;1.83;1.83;;;23.20;67.70;;;;;;5062638;28;43779;-72
2023/07/02 04:16:09;;;;;;;1.97;1.97;;;23.10;68.10;;;;;;5068841;28;43380;-72
2023/07/02 04:18:38;;;;;;;1.90;1.90;;;23.20;68.10;;;;;;5075044;28;43502;-72
2023/07/02 04:21:06;;;;;;;2.10;2.10;;;23.20;67.70;;;;;;5052092;28;43452;-72
2023/07/02 04:23:34;;;;;;;2.00;1.97;;;23.30;67.80;;;;;;5071175;28;43636;-72
2023/07/02 04:26:02;;;;;;;1.77;1.77;;;23.20;67.60;;;;;;5054060;28;44672;-72
2023/07/02 04:28:51;;;;;;;1.90;1.90;;;23.20;67.80;;;;;;5046052;28;43563;-72
2023/07/02 04:31:19;;;;;;;2.00;2.00;;;23.20;67.90;;;;;;5061009;28;43514;-72
2023/07/02 04:33:47;;;;;;;2.00;2.00;;;23.20;67.90;;;;;;5052514;28;44076;-72
2023/07/02 04:36:17;;;;;;;2.10;2.10;;;23.20;67.70;;;;;;5067905;28;43423;-72
2023/07/02 04:38:45;;;;;;;1.77;1.73;;;23.10;67.60;;;;;;5069643;28;43869;-72
2023/07/02 04:41:15;;;;;;;2.13;2.13;;;23.10;68.20;;;;;;5064693;28;43499;-72
2023/07/02 04:43:45;;;;;;;2.00;2.00;;;23.10;68.30;;;;;;5062669;28;43612;-72
2023/07/02 04:46:14;;;;;;;2.03;2.03;;;23.10;68.00;;;;;;5061612;28;43344;-72
2023/07/02 04:48:42;;;;;;;2.13;2.13;;;23.10;67.80;;;;;;5064995;28;43323;-72
2023/07/02 04:51:10;;;;;;;1.93;1.93;;;23.00;68.40;;;;;;5064664;28;43451;-72
2023/07/02 04:53:38;;;;;;;2.03;2.03;;;23.00;68.20;;;;;;5064962;28;43905;-72
2023/07/02 04:56:06;;;;;;;2.30;2.20;;;23.10;68.00;;;;;;5049922;28;44496;-72
2023/07/02 04:58:35;;;;;;;2.33;2.23;;;23.20;67.50;;;;;;5063272;28;43821;-72
2023/07/02 05:01:04;;;;;;;2.30;2.30;;;23.40;67.30;;;;;;5073634;28;43374;-72
2023/07/02 05:03:34;;;;;;;2.00;2.00;;;23.40;67.00;;;;;;5071659;28;44069;-72
2023/07/02 05:06:02;;;;;;;2.17;2.17;;;23.40;67.00;;;;;;5054090;28;44827;-72
2023/07/02 05:08:30;;;;;;;2.20;2.20;;;23.30;67.00;;;;;;5061637;28;43379;-72
2023/07/02 05:10:58;;;;;;;2.30;2.30;;;23.30;67.60;;;;;;5068939;28;43337;-72
2023/07/02 05:13:26;;;;;;;2.10;2.10;;;23.20;67.60;;;;;;5052253;28;46065;-72
2023/07/02 05:15:54;;;;;;;2.27;2.27;;;23.20;67.70;;;;;;5067931;28;43480;-72
2023/07/02 05:18:22;;;;;;;2.30;2.30;;;23.20;67.50;;;;;;5072914;28;43359;-72
2023/07/02 05:20:51;;;;;;;2.23;2.20;;;23.10;67.40;;;;;;5067129;28;43385;-72
2023/07/02 05:23:19;;;;;;;2.30;2.30;;;23.10;68.10;;;;;;5070511;28;43678;-72
2023/07/02 05:25:48;;;;;;;2.50;2.40;;;23.10;68.10;;;;;;5067121;28;43932;-72
2023/07/02 05:28:16;;;;;;;2.50;2.43;;;23.10;68.00;;;;;;5046430;28;43398;-72
2023/07/02 05:30:44;;;;;;;2.40;2.40;;;23.10;67.80;;;;;;5072465;28;43484;-72
2023/07/02 05:33:12;;;;;;;2.30;2.30;;;23.00;68.10;;;;;;5076744;28;43857;-72
2023/07/02 05:35:42;;;;;;;2.33;2.30;;;23.00;68.40;;;;;;5067731;28;43506;-72
2023/07/02 05:38:11;;;;;;;2.20;2.20;;;23.00;68.20;;;;;;5045286;28;44296;-72
2023/07/02 05:40:39;;;;;;;2.70;2.60;;;23.00;67.90;;;;;;5068581;28;43783;-72
2023/07/02 05:43:07;;;;;;;2.67;2.47;;;23.00;67.90;;;;;;5069407;28;43802;-72
2023/07/02 05:45:35;;;;;;;2.70;2.60;;;23.00;68.40;;;;;;5059237;28;43375;-72
2023/07/02 05:48:03;;;;;;;2.40;2.40;;;23.00;68.20;;;;;;5059346;28;43445;-72
2023/07/02 05:50:31;;;;;;;2.80;2.70;;;23.10;67.50;;;;;;5073149;28;43452;-72
2023/07/02 05:52:59;;;;;;;2.90;2.80;;;23.30;67.40;;;;;;5048075;28;44432;-72
2023/07/02 05:55:28;;;;;;;2.77;2.70;;;23.40;67.10;;;;;;5064922;28;43548;-72
2023/07/02 05:58:01;;;;;;;2.70;2.60;;;23.40;66.80;;;;;;5051472;28;43410;-72
2023/07/02 06:00:29;;;;;;;3.03;2.93;;;23.40;66.90;;;;;;5066986;28;43436;-71
2023/07/02 06:02:59;;;;;;;3.07;2.97;;;23.30;66.80;;;;;;5068386;28;43710;-71
2023/07/02 06:05:27;;;;;;;3.00;2.90;;;23.20;67.20;;;;;;5071204;28;43399;-71
2023/07/02 06:07:56;;;;;;;3.13;3.03;;;23.20;67.40;;;;;;5047364;28;43509;-71
2023/07/02 06:10:24;;;;;;;2.77;2.67;;;23.20;67.40;;;;;;5062003;28;43445;-72
2023/07/02 06:12:53;;;;;;;3.03;2.93;;;23.10;67.30;;;;;;5068992;28;43619;-71
2023/07/02 06:15:21;;;;;;;3.10;3.00;;;23.10;68.00;;;;;;5046381;28;43486;-72
2023/07/02 06:17:51;;;;;;;3.20;3.10;;;23.10;67.80;;;;;;5043634;28;43445;-72
2023/07/02 06:20:19;;;;;;;3.60;3.40;;;23.10;68.00;;;;;;5067363;28;43467;-72
2023/07/02 06:22:47;;;;;;;3.80;3.50;;;23.00;67.60;;;;;;5051664;28;45973;-72
2023/07/02 06:25:15;;;;;;;3.30;3.20;;;23.00;68.10;;;;;;5067979;28;43551;-72
2023/07/02 06:27:43;;;;;;;3.23;3.13;;;23.00;68.10;;;;;;5050431;28;43462;-72
2023/07/02 06:30:13;;;;;;;3.30;3.20;;;23.00;67.80;;;;;;5072749;28;43432;-72
2023/07/02 06:32:41;;;;;;;3.47;3.37;;;23.20;67.50;;;;;;5060608;28;43800;-72
2023/07/02 06:35:09;;;;;;;3.67;3.57;;;23.30;67.20;;;;;;5064773;28;43353;-72
2023/07/02 06:37:38;;;;;;;3.90;3.80;;;23.30;66.90;;;;;;5070607;28;43468;-72
2023/07/02 06:40:07;;;;;;;4.03;3.77;;;23.30;66.90;;;;;;5068581;28;43388;-72
2023/07/02 06:42:36;;;;;;;3.80;3.60;;;23.20;66.80;;;;;;5054174;28;44611;-72
2023/07/02 06:45:05;;;;;;;4.30;4.10;;;23.20;67.30;;;;;;5063092;28;43502;-71
2023/07/02 06:47:34;;;;;;;4.10;3.90;;;23.10;67.50;;;;;;5045153;28;43396;-71
2023/07/02 06:50:02;;;;;;;3.80;3.70;;;23.10;67.60;;;;;;5065946;28;43495;-72
2023/07/02 06:52:30;;;;;;;4.37;4.17;;;23.10;67.40;;;;;;5074533;28;44070;-71
2023/07/02 06:54:58;;;;;;;4.67;3.80;;;23.00;67.40;;;;;;5061045;28;43373;-71
2023/07/02 06:57:26;;;;;;;4.40;4.10;;;23.00;67.90;;;;;;5053894;28;43407;-71
2023/07/02 06:59:59;;;;;;;4.30;4.10;;;23.00;68.00;;;;;;5045747;28;43658;-71
2023/07/02 07:02:27;;;;;;;4.57;4.37;;;23.00;67.80;;;;;;5065040;28;43798;-72
2023/07/02 07:04:57;;;;;;;4.43;4.17;;;23.00;67.70;;;;;;5049885;28;44614;-72
2023/07/02 07:07:25;;;;;;;5.20;4.73;;;22.90;68.10;;;;;;5072076;28;43419;-72
2023/07/02 07:09:53;;;;;;;5.07;4.67;;;22.90;67.80;;;;;;5070779;28;43514;-72
2023/07/02 07:12:21;;;;;;;5.43;4.97;;;23.00;67.50;;;;;;5050642;28;45742;-72
2023/07/02 07:14:49;;;;;;;4.90;4.40;;;23.10;67.20;;;;;;5064749;28;43405;-72
2023/07/02 07:17:17;;;;;;;5.60;4.93;;;23.20;66.80;;;;;;5065509;28;43463;-72
2023/07/02 07:19:45;;;;;;;4.80;4.40;;;23.30;66.90;;;;;;5065148;28;44001;-72
2023/07/02 07:22:14;;;;;;;5.53;5.03;;;23.20;66.70;;;;;;5056813;28;45527;-72
2023/07/02 07:24:42;;;;;;;5.63;5.33;;;23.20;66.90;;;;;;5061323;28;44538;-72
2023/07/02 07:27:10;;;;;;;5.93;5.17;;;23.10;67.40;;;;;;5070017;28;43416;-72
2023/07/02 07:29:38;;;;;;;5.87;5.50;;;23.10;67.40;;;;;;5049943;28;43421;-72
2023/07/02 07:32:07;;;;;;;5.67;5.17;;;23.10;67.40;;;;;;5069691;28;43584;-72
2023/07/02 07:34:35;;;;;;;7.27;5.93;;;23.00;67.20;;;;;;5077408;28;43431;-71
2023/07/02 07:37:04;;;;;;;9.17;7.10;;;23.00;67.90;;;;;;5068307;28;43465;-72
2023/07/02 07:39:34;;;;;;;8.27;6.53;;;23.00;67.90;;;;;;5072130;28;43517;-72
2023/07/02 07:42:02;;;;;;;7.70;6.83;;;23.00;67.70;;;;;;5066157;28;43731;-72
2023/07/02 07:44:30;;;;;;;8.80;7.23;;;22.90;67.40;;;;;;5058672;28;45435;-72
2023/07/02 07:46:58;;;;;;;14.83;8.40;;;22.90;67.50;;;;;;5069590;28;43409;-72
2023/07/02 07:49:26;;;;;;;11.63;7.83;;;22.90;67.90;;;;;;5054009;28;43475;-72
2023/07/02 07:51:57;;;;;;;17.00;8.60;;;23.00;67.50;;;;;;5054930;28;45700;-72
2023/07/02 07:54:25;;;;;;;11.37;7.80;;;23.10;67.10;;;;;;5053056;28;44826;-72
2023/07/02 07:56:55;;;;;;;17.40;8.47;;;23.20;66.60;;;;;;5051113;28;43350;-71
2023/07/02 07:59:23;;;;;;;15.97;8.47;;;23.30;66.40;;;;;;5071303;28;43458;-71
2023/07/02 08:01:50;;;;;;;12.60;8.43;;;23.30;66.20;;;;;;5076750;28;46134;-71
2023/07/02 08:04:19;;;;;;;11.40;8.30;;;23.30;66.40;;;;;;5075460;28;43408;-71
2023/07/02 08:06:47;;;;;;;12.60;8.67;;;23.20;66.60;;;;;;5052089;28;43416;-72
2023/07/02 08:09:15;;;;;;;12.90;8.17;;;23.10;67.00;;;;;;5063532;28;43428;-72
2023/07/02 08:11:42;;;;;;;11.60;8.83;;;23.10;67.10;;;;;;5050332;28;44218;-71
2023/07/02 08:14:12;;;;;;;17.20;8.93;;;23.10;67.00;;;;;;5065916;28;43863;-71
2023/07/02 08:16:40;;;;;;;12.30;8.93;;;23.00;66.90;;;;;;5065045;28;43390;-72
2023/07/02 08:19:08;;;;;;;14.03;9.30;;;23.00;67.60;;;;;;5069449;28;43454;-72
2023/07/02 08:21:36;;;;;;;12.67;9.00;;;23.00;67.70;;;;;;5048806;28;45360;-72
2023/07/02 08:24:06;;;;;;;11.70;9.00;;;23.00;67.40;;;;;;5066288;28;43482;-72
2023/07/02 08:26:34;;;;;;;16.07;10.20;;;22.90;67.20;;;;;;5046103;28;43413;-72
2023/07/02 08:29:02;;;;;;;13.73;9.63;;;22.90;67.40;;;;;;5060166;28;43345;-72
2023/07/02 08:31:31;;;;;;;17.07;12.60;;;22.90;67.40;;;;;;5073134;28;43605;-72
2023/07/02 08:33:59;;;;;;;18.33;11.77;;;23.00;65.10;;;;;;5063258;28;43447;-71
2023/07/02 08:36:27;;;;;;;14.37;10.97;;;23.10;64.90;;;;;;5066333;28;43459;-71
2023/07/02 08:38:55;;;;;;;16.27;10.63;;;23.20;65.10;;;;;;5074054;28;43512;-71
2023/07/02 08:41:24;;;;;;;13.00;10.27;;;23.20;65.40;;;;;;5053024;28;45205;-71
2023/07/02 08:43:55;;;;;;;12.90;10.43;;;23.20;65.60;;;;;;5048991;28;44665;-71
2023/07/02 08:46:23;;;;;;;13.50;10.53;;;23.20;65.90;;;;;;5069145;28;43391;-71
2023/07/02 08:48:53;;;;;;;15.47;10.53;;;23.10;66.50;;;;;;5074650;28;43585;-71
2023/07/02 08:51:20;;;;;;;13.40;10.50;;;23.10;66.70;;;;;;5047006;28;45901;-72
2023/07/02 08:53:48;;;;;;;12.27;9.87;;;23.00;66.60;;;;;;5069315;28;43455;-72
2023/07/02 08:56:16;;;;;;;12.10;9.57;;;23.00;66.60;;;;;;5050689;28;43435;-71
2023/07/02 08:58:44;;;;;;;11.73;10.07;;;23.00;66.70;;;;;;5043761;28;43602;-71
2023/07/02 09:01:13;;;;;;;14.33;11.00;;;22.90;67.20;;;;;;5069415;28;43588;-71
2023/07/02 09:03:41;;;;;;;12.40;9.50;;;22.90;67.20;;;;;;5054985;28;44431;-71
2023/07/02 09:06:11;;;;;;;10.17;9.17;;;22.90;67.00;;;;;;5062428;28;44711;-71
2023/07/02 09:08:40;;;;;;;11.20;9.60;;;22.90;66.90;;;;;;5044433;28;43546;-71
2023/07/02 09:11:08;;;;;;;12.50;10.87;;;22.90;67.30;;;;;;5050742;28;45688;-71
2023/07/02 09:13:44;;;;;;;12.23;10.23;;;22.90;67.40;;;;;;5063962;28;43409;-71
2023/07/02 09:16:25;;;;;;;12.27;10.50;;;23.00;66.90;;;;;;5055275;28;43910;-71
2023/07/02 09:19:00;;;;;;;12.20;9.97;;;23.10;66.60;;;;;;5041927;28;43404;-72
2023/07/02 09:21:42;;;;;;;11.30;10.10;;;23.20;66.10;;;;;;5054417;28;45850;-73
2023/07/02 09:24:17;;;;;;;11.27;10.00;;;23.20;66.10;;;;;;5078653;28;43703;-72
2023/07/02 09:26:45;;;;;;;11.47;9.93;;;23.20;66.10;;;;;;5061371;28;43384;-72
2023/07/02 09:29:13;;;;;;;11.10;10.00;;;23.20;66.20;;;;;;5067478;28;43397;-72
2023/07/02 09:31:45;;;;;;;11.23;9.90;;;23.10;66.70;;;;;;5063926;28;43596;-72
2023/07/02 09:34:34;;;;;;;11.37;9.90;;;23.10;66.70;;;;;;5067857;28;43454;-72
2023/07/02 09:37:04;;;;;;;9.90;9.00;;;23.00;66.60;;;;;;5065974;28;43495;-73
2023/07/02 09:39:33;;;;;;;10.80;9.70;;;23.00;66.60;;;;;;5062463;28;43420;-72
2023/07/02 09:42:02;;;;;;;10.53;9.47;;;22.90;67.30;;;;;;5051440;28;45702;-72
2023/07/02 09:44:31;;;;;;;10.70;9.70;;;22.90;67.20;;;;;;5068309;28;43958;-72
2023/07/02 09:47:02;;;;;;;10.77;9.67;;;22.90;67.00;;;;;;5065997;28;43542;-72
2023/07/02 09:49:32;;;;;;;11.17;10.07;;;22.90;66.90;;;;;;5049025;28;43500;-72
2023/07/02 09:52:01;;;;;;;11.13;10.03;;;22.90;67.40;;;;;;5052157;28;43804;-72
2023/07/02 09:54:30;;;;;;;10.33;9.33;;;22.80;67.60;;;;;;5067939;28;43479;-72
2023/07/02 09:56:59;;;;;;;10.47;9.47;;;22.90;67.40;;;;;;5064517;28;43389;-72
2023/07/02 09:59:27;;;;;;;10.20;9.30;;;22.90;67.20;;;;;;5069382;28;43440;-72
2023/07/02 10:01:55;;;;;;;10.17;9.27;;;22.80;67.10;;;;;;5049119;28;45477;-72
2023/07/02 10:04:23;;;;;;;10.37;9.37;;;22.80;67.80;;;;;;5066153;28;43426;-72
2023/07/02 10:06:52;;;;;;;10.47;9.53;;;22.90;67.50;;;;;;5062976;28;43405;-72
2023/07/02 10:09:20;;;;;;;10.83;9.50;;;23.00;67.10;;;;;;5060571;28;43982;-72
2023/07/02 10:11:50;;;;;;;10.87;9.73;;;23.10;66.90;;;;;;5066918;28;43754;-72
2023/07/02 10:14:18;;;;;;;11.10;10.10;;;23.20;66.30;;;;;;5065232;28;43439;-72
2023/07/02 10:16:50;;;;;;;10.37;9.33;;;23.20;66.10;;;;;;5049891;28;43426;-72
2023/07/02 10:19:18;;;;;;;9.70;8.90;;;23.20;66.10;;;;;;5069979;28;43436;-71
2023/07/02 10:21:48;;;;;;;10.77;9.70;;;23.20;66.20;;;;;;5065554;28;43650;-71
2023/07/02 10:24:17;;;;;;;9.93;9.03;;;23.10;66.90;;;;;;5066439;28;44873;-72
2023/07/02 10:26:57;;;;;;;10.00;9.03;;;23.10;67.70;;;;;;5050556;28;43424;-71
2023/07/02 10:29:25;;;;;;;9.60;8.80;;;23.00;66.70;;;;;;5075431;28;43425;-71
2023/07/02 10:31:54;;;;;;;10.03;9.07;;;23.00;66.70;;;;;;5071521;28;43737;-71
2023/07/02 10:34:32;;;;;;;10.47;9.57;;;22.90;67.00;;;;;;5067339;28;43486;-71
2023/07/02 10:37:01;;;;;;;10.53;9.63;;;22.90;67.40;;;;;;5069677;28;43490;-71
2023/07/02 10:39:29;;;;;;;9.97;9.07;;;22.90;67.20;;;;;;5065176;28;43599;-71
2023/07/02 10:42:06;;;;;;;9.90;8.93;;;22.90;67.00;;;;;;5073760;28;43753;-71
2023/07/02 10:44:34;;;;;;;9.23;8.43;;;22.90;67.10;;;;;;5049978;28;43629;-73
2023/07/02 10:47:04;;;;;;;10.50;9.60;;;22.80;67.70;;;;;;5072678;28;43360;-71
2023/07/02 10:49:32;;;;;;;10.30;9.37;;;22.90;67.60;;;;;;5060031;28;43374;-72
2023/07/02 10:52:01;;;;;;;9.30;8.40;;;23.00;67.20;;;;;;5069819;28;43601;-72
2023/07/02 10:54:40;;;;;;;9.63;8.83;;;23.10;66.70;;;;;;5063874;28;43408;-72
2023/07/02 10:57:10;;;;;;;9.57;8.77;;;23.20;66.60;;;;;;5072420;28;43377;-72
2023/07/02 10:59:38;;;;;;;9.73;8.93;;;23.20;66.40;;;;;;5050250;28;43385;-72
2023/07/02 11:02:06;;;;;;;8.97;8.27;;;23.10;66.30;;;;;;5061528;28;45389;-72
2023/07/02 11:04:34;;;;;;;9.83;8.97;;;23.10;66.50;;;;;;5071307;28;43465;-72
2023/07/02 11:07:03;;;;;;;9.50;8.60;;;23.00;66.90;;;;;;5058896;28;43348;-72
2023/07/02 11:09:31;;;;;;;8.97;8.17;;;23.00;67.00;;;;;;5044794;28;43837;-72
2023/07/02 11:11:59;;;;;;;8.50;7.90;;;23.00;66.90;;;;;;5067799;28;43577;-72
2023/07/02 11:14:31;;;;;;;9.07;8.37;;;23.00;66.90;;;;;;5056232;28;44310;-72
2023/07/02 11:17:02;;;;;;;9.00;8.20;;;22.90;67.40;;;;;;5070872;28;43485;-72
2023/07/02 11:19:33;;;;;;;9.33;8.57;;;22.90;67.50;;;;;;5061669;28;43566;-71
2023/07/02 11:22:02;;;;;;;9.43;8.53;;;22.90;67.30;;;;;;5048729;28;45679;-72
2023/07/02 11:24:31;;;;;;;9.23;8.40;;;22.80;67.00;;;;;;5046540;28;44517;-71
2023/07/02 11:26:59;;;;;;;9.97;9.17;;;22.80;67.50;;;;;;5060867;28;43504;-71
2023/07/02 11:29:35;;;;;;;9.00;8.30;;;22.80;67.70;;;;;;5080095;28;43415;-71
2023/07/02 11:32:06;;;;;;;9.30;8.60;;;22.90;67.40;;;;;;5072877;28;43783;-71
2023/07/02 11:34:34;;;;;;;8.87;8.17;;;23.00;67.10;;;;;;5068700;28;43768;-72
2023/07/02 11:37:03;;;;;;;8.90;8.20;;;23.10;66.60;;;;;;5067781;28;43385;-72
2023/07/02 11:39:31;;;;;;;9.20;8.47;;;23.20;66.50;;;;;;5056834;28;43399;-71
2023/07/02 11:41:59;;;;;;;8.73;8.07;;;23.20;66.40;;;;;;5049513;28;46199;-71
2023/07/02 11:44:29;;;;;;;8.90;8.20;;;23.20;66.40;;;;;;5063238;28;44083;-72
2023/07/02 11:46:58;;;;;;;9.77;8.97;;;23.10;66.70;;;;;;5068122;28;43376;-72
2023/07/02 11:49:33;;;;;;;8.93;8.27;;;23.00;67.00;;;;;;5067925;28;43409;-71
2023/07/02 11:52:00;;;;;;;8.87;8.13;;;23.00;67.60;;;;;;5070099;28;43603;-72
2023/07/02 11:54:28;;;;;;;9.00;8.30;;;23.00;66.80;;;;;;5055570;28;44733;-72
2023/07/02 11:56:59;;;;;;;8.67;8.00;;;22.90;66.80;;;;;;5070440;28;43424;-72
2023/07/02 11:59:27;;;;;;;9.10;8.40;;;22.90;67.60;;;;;;5051178;28;43734;-72
2023/07/02 12:01:55;;;;;;;8.80;8.10;;;22.90;67.60;;;;;;5063401;28;45404;-72
2023/07/02 12:04:25;;;;;;;7.77;7.27;;;22.90;67.20;;;;;;5070215;28;43392;-72
2023/07/02 12:06:53;;;;;;;9.10;8.40;;;22.80;67.10;;;;;;5073263;28;43430;-72
2023/07/02 12:09:21;;;;;;;9.00;8.30;;;22.80;67.90;;;;;;5065175;28;43468;-72
2023/07/02 12:11:49;;;;;;;9.10;8.40;;;22.80;67.80;;;;;;5051447;28;45718;-72
2023/07/02 12:14:17;;;;;;;9.17;8.47;;;22.80;67.40;;;;;;5076795;28;44381;-72
2023/07/02 12:16:45;;;;;;;9.00;8.37;;;22.80;67.40;;;;;;5068987;28;43871;-72
2023/07/02 12:19:13;;;;;;;8.80;8.20;;;22.80;67.70;;;;;;5066136;28;43451;-72
2023/07/02 12:21:43;;;;;;;8.50;7.90;;;22.80;68.10;;;;;;5049024;28;45695;-72
2023/07/02 12:24:11;;;;;;;8.70;8.00;;;22.90;67.70;;;;;;5053963;28;44799;-72
2023/07/02 12:26:41;;;;;;;9.07;8.33;;;23.00;67.30;;;;;;5065883;28;43433;-72
2023/07/02 12:29:09;;;;;;;8.43;7.90;;;23.10;66.80;;;;;;5066032;28;43374;-73
2023/07/02 12:31:37;;;;;;;8.57;7.97;;;23.10;66.60;;;;;;5067926;28;43620;-73
2023/07/02 12:34:05;;;;;;;8.70;8.07;;;23.10;66.50;;;;;;5041050;28;44393;-72
2023/07/02 12:36:33;;;;;;;8.53;7.93;;;23.10;66.60;;;;;;5064616;28;43856;-72
2023/07/02 12:39:02;;;;;;;8.03;7.53;;;23.00;67.20;;;;;;5070368;28;43504;-72
2023/07/02 12:41:30;;;;;;;8.63;7.97;;;23.00;67.30;;;;;;5061513;28;43581;-72
2023/07/02 12:43:58;;;;;;;8.17;7.60;;;23.00;67.20;;;;;;5064860;28;43468;-72
2023/07/02 12:46:29;;;;;;;8.30;7.70;;;22.90;67.00;;;;;;5054706;28;44080;-72
2023/07/02 12:48:57;;;;;;;8.73;8.13;;;22.90;67.20;;;;;;5067481;28;43452;-72
2023/07/02 12:51:25;;;;;;;7.30;6.90;;;22.90;68.00;;;;;;5069517;28;45336;-72